Time;durP1;ratioP1;P1;durP2;ratioP2;P2;SDS_P1;SDS_P2;PMS_P1;PMS_P2;Temp;Humidity;BMP_temperature;BMP_pressure;BME280_temperature;BME280_humidity;BME280_pressure;Samples;Min_cycle;Max_cycle;Signal;HPM_P1;HPM_P2
2022/01/23 00:00:20;;;;;;;6.55;3.72;;;;;;;4.24;96.78;103342.63;2063556;28;46727;-77
2022/01/23 00:01:24;;;;;;;9.75;3.50;;;;;;;4.24;96.72;103339.09;2055566;28;21051;-78
2022/01/23 00:02:27;;;;;;;7.50;3.60;;;;;;;4.23;97.40;103343.47;2055903;28;43676;-77
2022/01/23 00:03:30;;;;;;;10.45;3.47;;;;;;;4.24;97.35;103341.75;2062913;28;45860;-77
2022/01/23 00:04:32;;;;;;;10.63;3.50;;;;;;;4.23;96.92;103350.53;2063543;28;44347;-78
2022/01/23 00:05:38;;;;;;;11.52;4.88;;;;;;;4.23;96.84;103350.53;2063149;28;45223;-77
2022/01/23 00:06:40;;;;;;;9.68;4.10;;;;;;;4.23;97.34;103354.06;2054917;28;43281;-77
2022/01/23 00:07:43;;;;;;;13.32;5.70;;;;;;;4.23;96.75;103334.63;2055478;28;35373;-77
2022/01/23 00:08:45;;;;;;;7.57;4.03;;;;;;;4.24;97.13;103336.44;2063345;28;44407;-78
2022/01/23 00:09:48;;;;;;;8.43;3.35;;;;;;;4.23;96.82;103338.16;2063548;28;44390;-77
2022/01/23 00:10:52;;;;;;;6.85;3.20;;;;;;;4.23;97.14;103339.91;2063121;28;43528;-77
2022/01/23 00:11:56;;;;;;;11.48;3.58;;;;;;;4.23;96.42;103334.63;2062620;28;46010;-77
2022/01/23 00:17:12;;;;;;;8.00;3.40;;;;;;;4.23;96.93;103337.25;2063983;28;31904;-75
2022/01/23 00:17:17;;;;;;;;;;;;;;;4.24;97.13;103341.75;2063683;28;43719;-77
2022/01/23 00:18:20;;;;;;;6.97;3.53;;;;;;;4.24;96.68;103336.44;2063095;28;36275;-77
2022/01/23 00:19:22;;;;;;;5.65;2.88;;;;;;;4.23;96.90;103337.25;2054866;28;43893;-77
2022/01/23 00:20:24;;;;;;;9.82;3.58;;;;;;;4.24;96.46;103344.41;2054603;28;45354;-77
2022/01/23 00:21:26;;;;;;;9.13;3.83;;;;;;;4.24;96.49;103341.75;2063521;28;42108;-78
2022/01/23 00:22:55;;;;;;;11.65;3.67;;;;;;;4.24;96.58;103342.63;2063188;28;42229;-77
2022/01/23 00:31:25;;;;;;;8.15;3.17;;;;;;;4.24;96.71;103342.63;2063685;28;32102;-77
2022/01/23 00:32:26;;;;;;;5.95;3.13;;;;;;;4.25;96.33;103343.53;2062806;28;46834;-77
2022/01/23 00:33:31;;;;;;;9.20;3.70;;;;;;;4.25;97.14;103343.53;2054419;28;42363;-78
2022/01/23 00:34:36;;;;;;;5.75;2.80;;;;;;;4.25;96.41;103343.53;2056151;28;20158;-78
2022/01/23 00:35:41;;;;;;;8.20;2.70;;;;;;;4.25;96.74;103344.44;2054348;28;46274;-77
2022/01/23 00:36:43;;;;;;;7.75;3.47;;;;;;;4.26;96.83;103348.00;2054319;28;42334;-76
2022/01/23 00:37:45;;;;;;;9.35;3.38;;;;;;;4.24;96.57;103340.00;2055069;28;45883;-77
2022/01/23 00:38:47;;;;;;;10.48;3.50;;;;;;;4.24;96.97;103337.34;2059180;28;44927;-78
2022/01/23 00:39:50;;;;;;;9.57;3.00;;;;;;;4.24;96.27;103347.03;2063365;28;41397;-77
2022/01/23 00:40:53;;;;;;;8.68;3.55;;;;;;;4.24;96.82;103347.94;2063405;28;46342;-78
2022/01/23 00:41:55;;;;;;;8.18;2.78;;;;;;;4.25;96.20;103347.09;2060591;28;44616;-77
2022/01/23 00:43:00;;;;;;;7.40;2.85;;;;;;;4.24;96.55;103350.59;2055713;28;20877;-77
2022/01/23 00:44:02;;;;;;;6.47;3.10;;;;;;;4.23;96.72;103346.13;2047015;28;37817;-78
2022/01/23 00:45:43;;;;;;;11.20;2.97;;;;;;;4.25;96.30;103347.09;2046239;28;43371;-77
2022/01/23 00:46:40;;;;;;;9.48;2.40;;;;;;;4.24;96.77;103337.34;2044607;28;20127;-78
2022/01/23 00:47:42;;;;;;;4.72;2.40;;;;;;;4.24;96.74;103339.09;2038981;28;42748;-78
2022/01/23 00:49:57;;;;;;;6.35;2.65;;;;;;;4.20;96.13;103336.31;2048628;28;40314;-77
2022/01/23 00:51:05;;;;;;;6.72;2.40;;;;;;;4.19;96.75;103342.44;2055749;28;20032;-78
2022/01/23 00:52:06;;;;;;;9.40;2.90;;;;;;;4.16;96.60;103341.41;2055104;28;45348;-78
2022/01/23 00:53:12;;;;;;;8.23;2.47;;;;;;;4.14;95.94;103343.09;2055404;28;26996;-78
2022/01/23 00:54:13;;;;;;;6.78;2.67;;;;;;;4.12;96.79;103343.00;2054837;28;44061;-78
2022/01/23 00:55:15;;;;;;;4.72;2.42;;;;;;;4.09;96.52;103340.25;2054578;28;40485;-78
2022/01/23 00:56:17;;;;;;;11.02;2.92;;;;;;;4.08;96.87;103341.09;2055892;28;25723;-78
2022/01/23 00:57:18;;;;;;;6.57;2.70;;;;;;;4.05;96.53;103342.69;2045546;28;44702;-78
2022/01/23 00:58:20;;;;;;;9.00;3.17;;;;;;;4.05;97.00;103340.03;2038696;28;42591;-77
2022/01/23 00:59:22;;;;;;;8.20;3.33;;;;;;;4.04;97.09;103351.47;2046915;28;28536;-77
2022/01/23 01:00:24;;;;;;;7.70;2.75;;;;;;;4.03;97.47;103347.03;2046871;28;20130;-78
2022/01/23 01:01:27;;;;;;;8.23;2.83;;;;;;;4.01;97.02;103350.50;2047656;28;20036;-79
2022/01/23 01:02:29;;;;;;;9.55;3.13;;;;;;;4.01;96.38;103352.25;2045524;28;43529;-77
2022/01/23 01:03:31;;;;;;;11.77;3.58;;;;;;;4.00;96.97;103353.09;2046843;28;46178;-77
2022/01/23 01:04:33;;;;;;;12.57;3.58;;;;;;;4.00;97.17;103354.03;2057432;28;20054;-78
2022/01/23 01:05:35;;;;;;;7.47;2.90;;;;;;;3.98;97.19;103352.13;2059119;28;46562;-78
2022/01/23 01:06:37;;;;;;;6.05;2.50;;;;;;;3.98;96.64;103354.78;2057030;28;20050;-77
2022/01/23 01:07:40;;;;;;;6.82;2.67;;;;;;;3.97;97.04;103352.97;2048448;28;20054;-77
2022/01/23 01:08:42;;;;;;;8.80;3.30;;;;;;;3.96;97.08;103356.47;2056496;28;21689;-77
2022/01/23 01:09:49;;;;;;;8.00;3.40;;;;;;;3.96;97.04;103359.09;2056359;28;20131;-77
2022/01/23 01:12:09;;;;;;;6.40;2.88;;;;;;;3.97;97.46;103359.19;2064235;28;42495;-78
2022/01/23 01:13:13;;;;;;;10.23;3.40;;;;;;;3.98;97.42;103360.06;2056261;28;32643;-78
2022/01/23 01:15:00;;;;;;;8.10;2.90;;;;;;;3.98;97.60;103354.78;2048288;28;20047;-78
2022/01/23 01:16:12;;;;;;;9.95;3.28;;;;;;;3.97;97.15;103348.56;2049540;28;20125;-78
2022/01/23 01:17:23;;;;;;;11.02;2.88;;;;;;;3.98;97.45;103347.75;2060674;28;20038;-77
2022/01/23 01:31:46;;;;;;;13.75;3.33;;;;;;;3.97;96.76;103343.28;2056105;28;46143;-76
2022/01/23 01:34:14;;;;;;;12.88;2.72;;;;;;;3.98;96.71;103346.81;2050570;28;23581;-77
2022/01/23 01:35:30;;;;;;;10.68;3.17;;;;;;;3.99;97.62;103341.59;2048918;28;20134;-76
2022/01/23 01:36:44;;;;;;;10.68;3.00;;;;;;;3.99;97.15;103346.00;2048503;28;20146;-77
2022/01/23 01:37:48;;;;;;;13.13;3.38;;;;;;;4.00;97.02;103342.47;2048534;28;20168;-77
2022/01/23 01:38:52;;;;;;;11.15;3.38;;;;;;;3.99;97.15;103343.34;2048858;28;20027;-76
2022/01/23 01:39:55;;;;;;;7.63;2.83;;;;;;;3.98;97.15;103336.22;2048158;28;20040;-78
2022/01/23 01:41:00;;;;;;;12.77;3.42;;;;;;;3.98;96.80;103344.16;2048263;28;20047;-77
2022/01/23 01:42:08;;;;;;;9.32;3.28;;;;;;;3.99;97.23;103346.00;2048774;28;20048;-77
2022/01/23 01:43:13;;;;;;;8.25;3.22;;;;;;;3.99;97.37;103344.25;2055947;28;20043;-77
2022/01/23 01:44:15;;;;;;;7.22;2.75;;;;;;;3.99;97.64;103352.19;2048116;28;20031;-77
2022/01/23 01:45:34;;;;;;;8.45;2.75;;;;;;;3.98;96.75;103355.69;2050208;28;20158;-77
2022/01/23 01:46:51;;;;;;;9.07;3.17;;;;;;;3.99;96.92;103348.66;2056717;28;21068;-77
2022/01/23 01:47:59;;;;;;;8.20;3.20;;;;;;;4.01;97.36;103354.91;2040474;28;20052;-78
2022/01/23 01:49:02;;;;;;;10.05;3.50;;;;;;;4.01;97.30;103346.97;2034881;28;20224;-75
2022/01/23 01:50:07;;;;;;;8.18;3.35;;;;;;;4.01;97.11;103360.22;2047866;28;20081;-77
2022/01/23 01:51:14;;;;;;;5.22;2.90;;;;;;;4.03;96.86;103358.53;2048808;28;20890;-78
2022/01/23 01:52:20;;;;;;;9.20;3.70;;;;;;;4.03;96.85;103363.84;2048173;28;20036;-77
2022/01/23 01:53:25;;;;;;;8.55;3.83;;;;;;;4.02;97.24;103359.38;2048370;28;34417;-77
2022/01/23 01:54:29;;;;;;;9.18;3.50;;;;;;;4.03;97.16;103361.19;2056120;28;20047;-77
2022/01/23 01:55:40;;;;;;;9.40;3.20;;;;;;;4.05;96.58;103366.56;2048427;28;20039;-77
2022/01/23 01:56:52;;;;;;;7.97;3.50;;;;;;;4.04;97.27;103365.66;2049588;28;20100;-77
2022/01/23 01:58:02;;;;;;;12.20;3.63;;;;;;;4.05;96.85;103364.81;2047846;28;20043;-77
2022/01/23 02:00:52;;;;;;;7.65;2.95;;;;;;;4.05;96.81;103364.81;2051335;28;20043;-77
2022/01/23 02:03:25;;;;;;;8.30;3.15;;;;;;;4.05;97.08;103367.44;2042792;28;20178;-77
2022/01/23 02:08:40;;;;;;;9.52;3.55;;;;;;;4.05;97.22;103372.75;2055632;28;20050;-77
2022/01/23 02:09:45;;;;;;;10.55;3.78;;;;;;;4.06;96.71;103378.97;2048784;28;20249;-77
2022/01/23 02:10:56;;;;;;;6.72;3.38;;;;;;;4.06;96.54;103369.28;2048715;28;20970;-77
2022/01/23 02:13:15;;;;;;;11.80;3.78;;;;;;;4.07;96.53;103384.31;2049704;28;20106;-77
2022/01/23 02:17:28;;;;;;;11.75;3.97;;;;;;;4.07;96.62;103373.72;2051571;28;20043;-78
2022/01/23 02:50:44;;;;;;;9.95;3.88;;;;;;;4.14;97.42;103377.56;2049565;28;41279;-77
2022/01/23 02:52:16;;;;;;;11.20;4.38;;;;;;;4.13;97.66;103384.59;2049015;28;20055;-77
2022/01/23 02:54:58;;;;;;;11.82;4.75;;;;;;;4.16;97.15;103375.88;2054234;28;20157;-77
2022/01/23 02:56:07;;;;;;;10.57;4.80;;;;;;;4.17;96.81;103383.00;2055607;28;20161;-77
2022/01/23 02:57:10;;;;;;;10.38;4.65;;;;;;;4.15;96.77;103385.56;2057016;28;20177;-78
2022/01/23 02:58:16;;;;;;;7.97;4.53;;;;;;;4.18;97.00;103390.09;2055473;28;20983;-76
2022/01/23 02:59:31;;;;;;;13.15;4.28;;;;;;;4.17;97.21;103386.53;2056033;28;20921;-76
2022/01/23 03:02:34;;;;;;;11.52;4.97;;;;;;;4.18;96.59;103388.38;2063707;28;20755;-77
2022/01/23 03:04:03;;;;;;;10.85;6.05;;;;;;;4.19;96.91;103382.22;2056143;28;20051;-78
2022/01/23 03:05:46;;;;;;;14.15;6.40;;;;;;;4.18;97.59;103379.47;2055809;28;20047;-76
2022/01/23 03:10:11;;;;;;;13.43;6.28;;;;;;;4.20;97.26;103381.38;2040677;28;20040;-77
2022/01/23 03:11:36;;;;;;;13.32;6.35;;;;;;;4.20;97.53;103378.72;2049365;28;43358;-78
2022/01/23 03:15:28;;;;;;;13.98;6.32;;;;;;;4.21;97.38;103369.91;2042390;28;20048;-77
2022/01/23 03:26:14;;;;;;;18.65;7.75;;;;;;;4.17;97.83;103367.97;2050231;28;45295;-78
2022/01/23 03:29:00;;;;;;;17.13;7.60;;;;;;;4.18;97.66;103375.09;2048852;28;43411;-77
2022/01/23 03:30:16;;;;;;;;;;;;;;;4.19;97.57;103373.34;2047289;28;32594;-77
2022/01/23 03:31:24;;;;;;;17.15;6.95;;;;;;;4.20;97.44;103369.88;2041064;28;47168;-77
2022/01/23 03:32:37;;;;;;;16.92;7.68;;;;;;;4.20;97.46;103383.13;2039107;28;44780;-77
2022/01/23 03:33:41;;;;;;;18.88;8.13;;;;;;;4.20;97.83;103377.84;2048615;28;44615;-77
2022/01/23 03:34:42;;;;;;;18.95;8.52;;;;;;;4.19;97.78;103374.25;2055549;28;45790;-77
2022/01/23 03:35:45;;;;;;;14.10;7.78;;;;;;;4.20;97.15;103372.53;2051152;28;20174;-77
2022/01/23 03:36:46;;;;;;;19.15;8.80;;;;;;;4.19;97.37;103370.69;2054117;28;45257;-78
2022/01/23 03:37:50;;;;;;;14.18;8.27;;;;;;;4.19;97.81;103374.25;2062514;28;45142;-77
2022/01/23 03:38:52;;;;;;;13.00;8.23;;;;;;;4.18;97.07;103368.88;2064031;28;32884;-77
2022/01/23 03:39:54;;;;;;;16.42;10.00;;;;;;;4.18;97.68;103368.88;2063970;28;20043;-78
2022/01/23 03:40:56;;;;;;;22.90;11.75;;;;;;;4.16;97.54;103363.53;2063138;28;46125;-77
2022/01/23 03:41:58;;;;;;;21.83;10.50;;;;;;;4.15;97.36;103364.38;2054931;28;26612;-78
2022/01/23 03:43:09;;;;;;;21.05;9.88;;;;;;;4.14;97.33;103362.53;2055230;28;20942;-78
2022/01/23 03:44:16;;;;;;;16.40;8.95;;;;;;;4.13;97.49;103366.06;2055980;28;20054;-77
2022/01/23 03:46:47;;;;;;;18.90;9.05;;;;;;;4.10;97.20;103365.91;2047764;28;20040;-78
2022/01/23 03:49:32;;;;;;;18.25;9.63;;;;;;;4.10;97.58;103360.59;2030817;29;20179;-77
2022/01/23 03:50:47;;;;;;;16.02;8.27;;;;;;;4.10;97.52;103357.97;2042260;28;20099;-77
2022/01/23 03:52:11;;;;;;;13.85;8.45;;;;;;;4.10;97.53;103365.00;2050153;28;20089;-77
2022/01/23 03:53:16;;;;;;;15.57;8.85;;;;;;;4.09;97.26;103364.13;2048338;28;20044;-77
2022/01/23 03:54:18;;;;;;;17.45;8.23;;;;;;;4.09;97.60;103369.41;2055295;28;29265;-77
2022/01/23 03:55:20;;;;;;;20.77;8.95;;;;;;;4.12;97.58;103371.28;2055257;28;20055;-75
2022/01/23 03:56:23;;;;;;;18.38;8.88;;;;;;;4.12;97.72;103368.63;2047659;28;20941;-77
2022/01/23 03:57:27;;;;;;;16.50;9.48;;;;;;;4.12;97.54;103365.97;2055932;28;20794;-77
2022/01/23 03:58:30;;;;;;;15.45;8.00;;;;;;;4.12;97.63;103361.56;2054744;28;20044;-76
2022/01/23 03:59:32;;;;;;;17.42;9.30;;;;;;;4.14;98.03;103369.59;2055416;28;20039;-77
2022/01/23 04:00:34;;;;;;;18.73;8.90;;;;;;;4.13;97.35;103366.06;2055321;28;20161;-77
2022/01/23 04:01:37;;;;;;;20.58;8.40;;;;;;;4.15;97.52;103374.06;2048076;28;20930;-77
2022/01/23 04:02:40;;;;;;;17.30;8.43;;;;;;;4.16;97.46;103373.22;2054747;28;36396;-77
2022/01/23 04:03:48;;;;;;;16.52;8.77;;;;;;;4.17;97.80;103367.97;2055749;28;20043;-77
2022/01/23 04:04:52;;;;;;;18.55;9.05;;;;;;;4.19;97.83;103366.28;2049726;28;20040;-77
2022/01/23 04:05:57;;;;;;;18.55;8.52;;;;;;;4.19;97.22;103373.34;2053845;28;20934;-77
2022/01/23 04:06:59;;;;;;;18.42;8.27;;;;;;;4.19;97.54;103371.59;2057603;28;20047;-77
2022/01/23 04:08:01;;;;;;;13.50;8.45;;;;;;;4.21;97.61;103377.88;2057448;28;20165;-78
2022/01/23 04:09:02;;;;;;;22.00;9.02;;;;;;;4.21;96.95;103375.22;2048880;28;25759;-77
2022/01/23 04:10:11;;;;;;;16.63;7.88;;;;;;;4.22;97.81;103376.16;2040015;28;37644;-77
2022/01/23 04:11:14;;;;;;;18.17;8.57;;;;;;;4.23;97.19;103374.38;2041384;28;20040;-77
2022/01/23 04:13:52;;;;;;;17.10;8.20;;;;;;;4.24;97.16;103370.91;2055666;28;20047;-78
2022/01/23 04:15:47;;;;;;;24.33;8.55;;;;;;;4.25;96.76;103373.59;2057203;28;20122;-77
2022/01/23 04:19:19;;;;;;;20.67;8.90;;;;;;;4.26;96.94;103379.84;2055655;28;20086;-77
2022/01/23 04:20:33;;;;;;;14.13;8.32;;;;;;;4.27;97.42;103378.97;2047286;28;20133;-78
2022/01/23 04:32:58;;;;;;;19.30;8.32;;;;;;;4.33;97.27;103390.75;2055240;28;30684;-77
2022/01/23 04:34:13;;;;;;;14.32;7.90;;;;;;;4.33;96.82;103385.44;2055297;28;20094;-77
2022/01/23 05:00:47;;;;;;;15.32;7.95;;;;;;;4.42;96.69;103410.56;2050356;28;46518;-75
2022/01/23 05:04:51;;;;;;;12.77;6.97;;;;;;;4.44;97.15;103406.22;2065288;28;20038;-76
2022/01/23 05:06:12;;;;;;;15.20;7.18;;;;;;;4.43;96.86;103407.94;2056520;28;20040;-76
2022/01/23 05:07:30;;;;;;;12.98;6.35;;;;;;;4.44;97.43;103406.22;2053087;28;20039;-75
2022/01/23 05:08:39;;;;;;;14.75;7.65;;;;;;;4.45;97.45;103411.59;2049769;28;20056;-77
2022/01/23 05:10:07;;;;;;;14.60;7.38;;;;;;;4.44;96.84;103411.53;2056561;28;20046;-76
2022/01/23 05:11:13;;;;;;;10.30;6.82;;;;;;;4.45;96.64;103410.69;2056461;28;20150;-76
2022/01/23 05:12:35;;;;;;;14.98;6.40;;;;;;;4.44;96.35;103414.19;2059617;28;20158;-77
2022/01/23 05:13:37;;;;;;;14.63;7.68;;;;;;;4.43;96.90;103407.94;2062706;28;45515;-76
2022/01/23 05:14:45;;;;;;;12.63;6.57;;;;;;;4.43;97.00;103405.31;2063898;28;36166;-75
2022/01/23 05:15:47;;;;;;;12.45;6.90;;;;;;;4.45;96.37;103410.69;2055677;28;20117;-78
2022/01/23 05:16:51;;;;;;;13.52;6.13;;;;;;;4.45;96.86;103411.59;2048520;28;20903;-76
2022/01/23 05:17:53;;;;;;;15.05;7.45;;;;;;;4.45;96.94;103413.31;2047998;28;45612;-78
2022/01/23 05:18:54;;;;;;;13.27;6.68;;;;;;;4.45;96.88;103419.56;2056417;28;45236;-77
2022/01/23 05:19:56;;;;;;;12.63;6.72;;;;;;;4.46;96.82;103410.75;2040198;29;20198;-78
2022/01/23 05:21:10;;;;;;;13.75;6.93;;;;;;;4.46;96.72;103416.06;2040199;28;44450;-78
2022/01/23 05:22:20;;;;;;;13.93;6.07;;;;;;;4.47;97.08;103409.00;2040484;29;20048;-76
2022/01/23 05:23:22;;;;;;;10.48;5.93;;;;;;;4.46;96.88;103418.69;2044695;28;27588;-76
2022/01/23 05:24:30;;;;;;;11.60;6.50;;;;;;;4.46;97.19;103402.78;2048231;28;44112;-76
2022/01/23 05:25:37;;;;;;;10.27;5.40;;;;;;;4.49;96.46;103413.53;2048794;28;27567;-76
2022/01/23 05:26:45;;;;;;;14.02;6.45;;;;;;;4.48;96.78;103405.50;2056088;28;20106;-76
2022/01/23 05:27:52;;;;;;;13.23;5.10;;;;;;;4.48;96.99;103406.41;2055242;28;46572;-77
2022/01/23 05:28:54;;;;;;;12.52;5.50;;;;;;;4.49;96.68;103408.22;2057830;28;44575;-78
2022/01/23 05:29:58;;;;;;;16.98;5.93;;;;;;;4.48;96.71;103410.81;2050719;28;20951;-77
2022/01/23 05:31:00;;;;;;;11.75;5.50;;;;;;;4.48;96.64;103405.50;2049967;28;33457;-77
2022/01/23 05:32:04;;;;;;;13.68;5.70;;;;;;;4.49;96.63;103405.56;2058160;28;44226;-78
2022/01/23 05:33:09;;;;;;;8.07;4.82;;;;;;;4.49;96.88;103409.97;2058250;28;45175;-78
2022/01/23 05:34:10;;;;;;;13.57;5.63;;;;;;;4.49;96.74;103405.56;2059144;28;21061;-78
2022/01/23 05:35:18;;;;;;;9.57;5.50;;;;;;;4.49;96.95;103408.22;2058927;28;20082;-77
2022/01/23 05:36:21;;;;;;;12.10;5.88;;;;;;;4.48;96.42;103409.06;2050446;28;20930;-77
2022/01/23 05:37:26;;;;;;;10.98;5.68;;;;;;;4.50;96.55;103410.03;2043169;28;20047;-77
2022/01/23 05:38:28;;;;;;;9.20;4.97;;;;;;;4.51;97.19;103413.59;2043101;28;20801;-77
2022/01/23 05:39:32;;;;;;;10.75;5.07;;;;;;;4.50;96.70;103404.72;2051097;28;20035;-77
2022/01/23 05:40:36;;;;;;;12.80;5.22;;;;;;;4.50;97.35;103406.47;2050590;28;20054;-78
2022/01/23 05:41:37;;;;;;;10.00;4.90;;;;;;;4.53;97.31;103412.81;2050990;28;21961;-77
2022/01/23 05:42:40;;;;;;;11.45;5.50;;;;;;;4.51;96.69;103411.84;2059507;28;20051;-77
2022/01/23 05:43:42;;;;;;;9.30;4.63;;;;;;;4.50;96.39;103410.03;2059148;28;20815;-78
2022/01/23 05:44:44;;;;;;;8.93;5.00;;;;;;;4.50;96.97;103414.44;2056968;28;20930;-77
2022/01/23 05:45:46;;;;;;;11.30;4.82;;;;;;;4.49;96.17;103412.63;2048623;28;20048;-77
2022/01/23 05:47:16;;;;;;;11.00;4.78;;;;;;;4.49;97.07;103413.53;2056071;28;20039;-76
2022/01/23 05:48:29;;;;;;;11.65;4.53;;;;;;;4.48;96.97;103403.75;2056261;28;20098;-77
2022/01/23 05:49:54;;;;;;;11.80;4.25;;;;;;;4.47;96.97;103409.00;2059672;28;20113;-76
2022/01/23 05:51:27;;;;;;;12.13;5.22;;;;;;;4.46;96.58;103409.84;2055783;28;20457;-77
2022/01/23 05:52:38;;;;;;;15.07;5.13;;;;;;;4.46;97.07;103415.16;2058047;28;20495;-76
2022/01/23 05:53:57;;;;;;;7.80;4.85;;;;;;;4.46;96.77;103415.16;2064484;28;20047;-78
2022/01/23 05:55:18;;;;;;;11.38;5.03;;;;;;;4.45;96.81;103416.91;2064360;28;20193;-77
2022/01/23 05:56:38;;;;;;;12.13;4.93;;;;;;;4.43;96.99;103413.25;2065052;28;20913;-77
2022/01/23 05:58:06;;;;;;;9.93;5.10;;;;;;;4.41;97.12;103407.00;2040992;28;20048;-76
2022/01/23 05:59:23;;;;;;;10.73;4.43;;;;;;;4.42;96.85;103408.81;2055699;28;20828;-75
2022/01/23 06:00:25;;;;;;;12.57;5.20;;;;;;;4.41;96.46;103414.94;2048668;28;20870;-76
2022/01/23 06:01:27;;;;;;;9.45;4.50;;;;;;;4.39;96.63;103406.91;2054979;28;43404;-77
2022/01/23 06:02:36;;;;;;;12.82;5.03;;;;;;;4.38;96.86;103410.44;2055757;28;21055;-76
2022/01/23 06:03:38;;;;;;;8.48;4.55;;;;;;;4.36;97.02;103406.81;2040229;28;20565;-76
2022/01/23 06:04:44;;;;;;;10.93;4.32;;;;;;;4.36;97.20;103405.88;2048753;28;20039;-76
2022/01/23 06:05:56;;;;;;;8.70;4.50;;;;;;;4.34;96.77;103404.91;2049093;28;20051;-78
2022/01/23 06:07:03;;;;;;;8.50;4.53;;;;;;;4.32;96.84;103417.22;2048406;28;20070;-77
2022/01/23 06:08:05;;;;;;;10.07;4.35;;;;;;;4.30;96.86;103413.59;2047873;28;20149;-77
2022/01/23 06:09:07;;;;;;;18.70;4.25;;;;;;;4.28;96.96;103417.94;2056655;28;20106;-77
2022/01/23 06:10:19;;;;;;;5.95;3.55;;;;;;;4.23;97.11;103408.88;2064062;28;36283;-77
2022/01/23 06:11:22;;;;;;;8.70;4.57;;;;;;;4.23;97.21;103412.41;2055804;28;20054;-77
2022/01/23 06:12:23;;;;;;;10.10;4.43;;;;;;;4.20;97.34;103413.19;2047862;28;34238;-77
2022/01/23 06:13:27;;;;;;;11.02;4.43;;;;;;;4.20;96.84;103420.25;2048010;28;20115;-77
2022/01/23 06:14:33;;;;;;;7.03;4.05;;;;;;;4.18;97.55;103420.19;2047763;28;20127;-76
2022/01/23 06:15:35;;;;;;;8.30;4.65;;;;;;;4.19;97.55;103416.69;2048504;28;20142;-76
2022/01/23 06:16:38;;;;;;;10.90;4.78;;;;;;;4.19;97.36;103418.44;2055605;28;20047;-76
2022/01/23 06:17:58;;;;;;;11.10;4.82;;;;;;;4.20;97.41;103420.25;2056331;28;20051;-76
2022/01/23 06:19:35;;;;;;;12.07;4.53;;;;;;;4.20;97.80;103418.50;2024348;29;20038;-76
2022/01/23 06:20:55;;;;;;;10.18;4.70;;;;;;;4.22;97.19;103413.28;2056647;28;20162;-76
2022/01/23 06:22:15;;;;;;;;;;;;;;;4.22;97.11;103413.28;2057701;28;20182;-75
2022/01/23 06:23:35;;;;;;;10.57;4.38;;;;;;;4.24;97.76;103419.53;2056987;28;19919;-76
2022/01/23 06:24:50;;;;;;;14.57;4.40;;;;;;;4.22;97.01;103410.63;2047596;28;20044;-76
2022/01/23 06:26:06;;;;;;;11.32;4.95;;;;;;;4.20;97.34;103415.84;2042246;28;20056;-76
2022/01/23 06:27:16;;;;;;;7.65;4.70;;;;;;;4.20;96.94;103413.19;2041051;28;20048;-75
2022/01/23 06:28:58;;;;;;;9.35;4.38;;;;;;;4.17;96.56;103412.16;2048066;28;23892;-76
2022/01/23 06:30:00;;;;;;;8.05;4.40;;;;;;;4.16;97.02;103418.28;2031262;29;44299;-76
2022/01/23 06:31:02;;;;;;;10.73;4.43;;;;;;;4.16;97.03;103418.28;2055154;28;20126;-77
2022/01/23 06:32:10;;;;;;;12.60;5.13;;;;;;;4.14;97.36;103418.22;2059826;28;20146;-79
2022/01/23 06:33:12;;;;;;;9.95;4.03;;;;;;;4.12;96.97;103422.56;2058825;28;45315;-76
2022/01/23 06:34:18;;;;;;;10.18;4.65;;;;;;;4.12;97.67;103417.25;2057935;28;20086;-76
2022/01/23 06:35:19;;;;;;;7.72;4.30;;;;;;;4.12;97.37;103419.00;2055541;28;44840;-75
2022/01/23 06:36:21;;;;;;;9.00;4.68;;;;;;;4.13;97.70;103423.47;2047721;28;20118;-78
2022/01/23 06:37:23;;;;;;;11.02;4.40;;;;;;;4.12;97.63;103421.66;2040221;28;20154;-76
2022/01/23 06:38:25;;;;;;;7.30;4.10;;;;;;;4.13;97.46;103429.69;2039214;28;35897;-76
2022/01/23 06:39:27;;;;;;;14.88;4.78;;;;;;;4.14;97.36;103427.94;2047536;28;20047;-76
2022/01/23 06:40:33;;;;;;;10.35;4.60;;;;;;;4.14;97.57;103428.81;2055312;28;20873;-77
2022/01/23 06:41:50;;;;;;;7.00;3.92;;;;;;;4.17;97.72;103426.31;2050191;28;20830;-76
2022/01/23 06:43:14;;;;;;;8.45;4.55;;;;;;;4.18;97.00;103432.50;2040089;28;20098;-76
2022/01/23 06:44:33;;;;;;;9.30;4.53;;;;;;;4.20;97.08;103437.06;2055193;28;20161;-77
2022/01/23 06:45:35;;;;;;;7.82;4.20;;;;;;;4.19;97.35;103437.88;2047927;28;20040;-77
2022/01/23 06:46:39;;;;;;;7.78;3.95;;;;;;;4.20;97.64;103437.06;2055727;28;20119;-76
2022/01/23 06:47:42;;;;;;;9.82;3.85;;;;;;;4.22;97.73;103437.13;2055175;28;20166;-76
2022/01/23 06:48:46;;;;;;;10.40;4.30;;;;;;;4.24;96.89;103439.84;2055708;28;20090;-77
2022/01/23 06:49:47;;;;;;;7.68;3.80;;;;;;;4.24;96.96;103435.44;2047284;28;20161;-76
2022/01/23 06:50:52;;;;;;;7.07;4.10;;;;;;;4.25;96.85;103436.34;2047915;28;20111;-76
2022/01/23 06:51:58;;;;;;;9.73;4.60;;;;;;;4.27;97.24;103442.63;2047977;28;20091;-77
2022/01/23 06:53:00;;;;;;;13.52;3.80;;;;;;;4.27;97.71;103439.97;2056085;28;20166;-77
2022/01/23 06:54:03;;;;;;;8.68;3.97;;;;;;;4.27;97.32;103442.63;2055032;28;20135;-78
2022/01/23 06:55:05;;;;;;;8.65;4.68;;;;;;;4.27;97.00;103437.31;2047803;28;21122;-77
2022/01/23 06:56:07;;;;;;;9.52;4.22;;;;;;;4.28;96.88;103439.13;2039338;28;20048;-76
2022/01/23 06:57:09;;;;;;;11.50;4.47;;;;;;;4.28;96.91;103442.69;2032496;28;20057;-76
2022/01/23 06:58:11;;;;;;;9.73;4.93;;;;;;;4.29;97.11;103443.59;2047728;28;20044;-78
2022/01/23 06:59:13;;;;;;;8.90;4.00;;;;;;;4.30;97.16;103445.41;2055662;28;20139;-77
2022/01/23 07:00:24;;;;;;;8.02;4.35;;;;;;;4.30;97.02;103445.41;2055544;28;20051;-77
2022/01/23 07:01:35;;;;;;;8.07;4.03;;;;;;;4.30;96.88;103454.25;2056782;28;20091;-77
2022/01/23 07:02:59;;;;;;;8.20;3.53;;;;;;;4.31;97.41;103449.91;2055889;28;20095;-77
2022/01/23 07:04:24;;;;;;;5.63;3.47;;;;;;;4.31;96.95;103444.59;2050801;28;20178;-77
2022/01/23 07:05:39;;;;;;;6.85;4.38;;;;;;;4.31;96.99;103442.84;2055656;28;20556;-77
2022/01/23 07:07:08;;;;;;;8.05;4.07;;;;;;;4.31;96.72;103449.91;2050846;28;20048;-76
2022/01/23 07:08:21;;;;;;;7.70;3.65;;;;;;;4.30;96.63;103448.97;2064427;28;20043;-76
2022/01/23 07:09:41;;;;;;;8.27;4.55;;;;;;;4.29;96.83;103447.16;2055586;28;20118;-76
2022/01/23 07:10:56;;;;;;;6.30;4.13;;;;;;;4.28;97.03;103450.66;2049117;28;20925;-76
2022/01/23 07:12:15;;;;;;;13.77;4.90;;;;;;;4.26;96.61;103452.31;2057649;28;20863;-76
2022/01/23 07:13:36;;;;;;;10.98;4.80;;;;;;;4.26;96.61;103451.44;2064245;28;20039;-77
2022/01/23 07:14:43;;;;;;;12.07;4.68;;;;;;;4.26;97.12;103462.03;2055055;28;20219;-76
2022/01/23 07:16:02;;;;;;;6.40;3.88;;;;;;;4.24;97.03;103459.31;2049658;28;20035;-78
2022/01/23 07:17:23;;;;;;;6.88;4.22;;;;;;;4.25;96.68;103461.09;2058276;28;20059;-78
2022/01/23 07:18:28;;;;;;;10.07;4.82;;;;;;;4.24;96.96;103454.00;2055069;28;20886;-76
2022/01/23 07:19:43;;;;;;;7.68;4.30;;;;;;;4.24;96.55;103461.97;2049777;28;20040;-77
2022/01/23 07:20:47;;;;;;;8.95;4.43;;;;;;;4.23;96.73;103467.19;2047269;28;20047;-77
2022/01/23 07:21:56;;;;;;;10.93;4.38;;;;;;;4.23;97.26;103461.91;2056714;28;20069;-76
2022/01/23 07:22:59;;;;;;;9.00;4.65;;;;;;;4.23;96.66;103464.53;2055389;28;20122;-76
2022/01/23 07:24:01;;;;;;;8.35;4.28;;;;;;;4.21;97.13;103464.47;2047577;28;20911;-77
2022/01/23 07:25:05;;;;;;;11.52;4.75;;;;;;;4.20;96.94;103468.88;2054617;28;42284;-76
2022/01/23 07:26:07;;;;;;;9.43;5.05;;;;;;;4.20;96.74;103463.59;2055289;28;21017;-76
2022/01/23 07:27:17;;;;;;;9.02;4.88;;;;;;;4.20;96.84;103468.88;2056064;28;21142;-76
2022/01/23 07:28:22;;;;;;;7.50;4.60;;;;;;;4.19;97.06;103467.06;2055762;28;20158;-75
2022/01/23 07:29:24;;;;;;;7.93;4.22;;;;;;;4.19;97.42;103475.00;2047468;28;20048;-76
2022/01/23 07:32:36;;;;;;;9.57;4.80;;;;;;;4.17;96.77;103466.09;2048129;28;20047;-76
2022/01/23 07:33:38;;;;;;;9.32;4.55;;;;;;;4.16;96.56;103469.59;2055523;28;21823;-75
2022/01/23 07:34:41;;;;;;;7.63;4.47;;;;;;;4.14;97.06;103471.25;2063445;28;20039;-76
2022/01/23 07:35:48;;;;;;;9.38;3.65;;;;;;;4.13;97.20;103465.91;2054902;28;20039;-76
2022/01/23 07:36:50;;;;;;;9.43;3.95;;;;;;;4.13;96.98;103476.50;2047795;28;20853;-76
2022/01/23 07:38:18;;;;;;;9.13;4.50;;;;;;;4.09;97.15;103470.16;2010426;29;20152;-76
2022/01/23 07:39:31;;;;;;;9.43;4.38;;;;;;;4.08;96.70;103473.63;2047163;28;20039;-76